Thunder radar more information blitzortung!


Radar de pluja more information rain snow radar


Visita la nostra xarxa de llocs de meteo:

Template documentation
and downloads

And another site



No particular awareness of the weather is required.    There are no Weather-warnings

Pagina Historial Weather Underground text

Diari Resum Desembre 11, 2017 Unitats:  Imperial    Mètric   Tant
« Previous Dia
SegĂźent Dia »
Diari Setmana Mensual Anual Personalitzada
  Maxima: Minima: Media:
Temperatura: TemperatureC °F 4.7 °F 10.3 °F
Punt de rosada: DewpointC °F -1.6 °F 3.1 °F
Humitat: Humidity % 53 % 61 %
Wind Speed: WindSpeedKMH mph 0.0 mph 5.9 mph
RĂ fegues de vent: WindSpeedGustKMH mph - -
Vent:- - WSW
Pression baro: PressurehPa in 987.0 in -
Precipitacions: 0.0 in    
Historical Graphs
 
 
Dades de taula per Desembre 11, 2017
Temps Temperatura Punt de rosada Pression baro Vent Wind Speed RĂ fegues de vent Humitat Rainfall Rate (Hourly)
TemperatureC °F DewpointC °F PressurehPa in Calm     Humidity % HourlyPrecipMM in
00:00 13.7 °F 9.3 °F 988.0 in SW 11.3 mph 12.9 mph 75 % 0.0 in
00:01 11.0 °F 4.2 °F 994.8 in SW 5.0 mph 5.0 mph 63 % 0.0 in
00:11 10.8 °F 4.1 °F 994.8 in WSW 5.6 mph 5.6 mph 63 % 0.0 in
00:20 13.3 °F 9.6 °F 987.0 in SW 9.7 mph 19.3 mph 78 % 0.0 in
00:40 13.0 °F 9.4 °F 988.0 in SW 4.8 mph 12.9 mph 79 % 0.0 in
01:20 13.4 °F 9.3 °F 988.0 in WSW 9.7 mph 17.7 mph 76 % 0.0 in
01:30 13.6 °F 9.1 °F 988.0 in WSW 9.7 mph 24.1 mph 74 % 0.0 in
01:40 13.7 °F 9.2 °F 988.0 in WSW 9.7 mph 11.3 mph 74 % 0.0 in
02:00 13.9 °F 9.1 °F 988.0 in WSW 9.7 mph 16.1 mph 73 % 0.0 in
02:10 14.0 °F 9.1 °F 987.0 in SW 8.0 mph 12.9 mph 72 % 0.0 in
02:20 14.0 °F 9.1 °F 988.0 in SSW 8.0 mph 9.7 mph 72 % 0.0 in
02:30 14.1 °F 9.3 °F 988.0 in SW 11.3 mph 11.3 mph 73 % 0.0 in
02:40 14.3 °F 9.5 °F 988.0 in SW 8.0 mph 12.9 mph 73 % 0.0 in
03:00 14.2 °F 9.6 °F 988.0 in SW 8.0 mph 9.7 mph 74 % 0.0 in
03:10 14.2 °F 9.8 °F 988.0 in SSW 8.0 mph 12.9 mph 75 % 0.0 in
03:20 14.1 °F 9.7 °F 988.0 in SSW 4.8 mph 9.7 mph 75 % 0.0 in
03:30 14.1 °F 9.7 °F 988.0 in SW 9.7 mph 14.5 mph 75 % 0.0 in
03:50 13.7 °F 9.6 °F 988.0 in SW 9.7 mph 9.7 mph 76 % 0.0 in
04:10 12.6 °F 8.9 °F 988.7 in WSW 4.8 mph 6.4 mph 78 % 0.0 in
04:20 12.3 °F 8.6 °F 988.7 in WSW 4.8 mph 9.7 mph 78 % 0.0 in
04:30 12.1 °F 8.4 °F 988.7 in WSW 4.8 mph 6.4 mph 78 % 0.0 in
04:40 12.0 °F 8.4 °F 988.7 in SW 3.2 mph 6.4 mph 79 % 0.0 in
10:43 11.9 °F 8.4 °F 988.7 in WSW 5.6 mph 5.6 mph 79 % 0.0 in
10:53 11.9 °F 8.4 °F 990.1 in WSW 2.6 mph 5.8 mph 79 % 0.0 in
10:58 11.8 °F 8.3 °F 990.1 in WSW 4.2 mph 4.2 mph 79 % 0.0 in
11:03 11.8 °F 8.3 °F 990.1 in SW 5.8 mph 5.8 mph 79 % 0.0 in
11:08 11.7 °F 8.2 °F 990.1 in WNW 5.8 mph 5.8 mph 79 % 0.0 in
11:13 11.6 °F 8.1 °F 988.7 in WSW 11.1 mph 11.1 mph 79 % 0.0 in
11:18 11.6 °F 8.1 °F 988.7 in SW 5.6 mph 5.6 mph 79 % 0.0 in
11:23 11.5 °F 8.0 °F 988.7 in SSW 3.7 mph 5.0 mph 79 % 0.0 in
11:28 11.5 °F 8.0 °F 990.1 in West 5.6 mph 7.6 mph 79 % 0.0 in
11:29 11.5 °F 8.0 °F 990.1 in West 5.6 mph 7.6 mph 79 % 0.0 in
11:34 11.5 °F 7.8 °F 990.1 in WNW 7.6 mph 7.6 mph 78 % 0.0 in
11:39 11.6 °F 7.9 °F 990.1 in WSW 2.6 mph 3.5 mph 78 % 0.0 in
11:44 11.7 °F 8.0 °F 990.1 in WSW 4.7 mph 4.7 mph 78 % 0.0 in
11:49 11.7 °F 7.8 °F 990.1 in WSW 4.7 mph 4.7 mph 77 % 0.0 in
11:54 11.8 °F 7.9 °F 990.1 in WSW 4.7 mph 4.7 mph 77 % 0.0 in
11:59 11.9 °F 7.8 °F 990.1 in WSW 5.6 mph 5.6 mph 76 % 0.0 in
12:04 12.0 °F 7.7 °F 990.1 in WSW 7.9 mph 7.9 mph 75 % 0.0 in
12:09 12.1 °F 7.6 °F 990.1 in SSW 5.6 mph 5.6 mph 74 % 0.0 in
12:14 12.2 °F 7.5 °F 990.1 in SW 11.9 mph 11.9 mph 73 % 0.0 in
12:19 12.3 °F 7.2 °F 990.1 in SW 9.3 mph 9.3 mph 71 % 0.0 in
12:29 12.3 °F 6.6 °F 990.1 in SW 13.0 mph 13.0 mph 68 % 0.0 in
12:34 12.3 °F 6.3 °F 990.1 in WSW 11.1 mph 11.1 mph 67 % 0.0 in
12:44 12.4 °F 6.0 °F 990.1 in SSW 2.6 mph 4.2 mph 65 % 0.0 in
12:54 12.3 °F 5.9 °F 990.1 in WSW 9.3 mph 9.3 mph 65 % 0.0 in
12:59 12.4 °F 6.0 °F 990.1 in WSW 4.7 mph 4.7 mph 65 % 0.0 in
13:04 12.4 °F 5.8 °F 990.1 in WNW 5.6 mph 5.6 mph 64 % 0.0 in
13:09 12.5 °F 5.9 °F 990.1 in WNW 5.6 mph 5.6 mph 64 % 0.0 in
13:14 12.6 °F 5.9 °F 990.1 in WSW 5.6 mph 5.6 mph 64 % 0.0 in
13:19 12.7 °F 6.1 °F 990.1 in SW 7.4 mph 7.4 mph 64 % 0.0 in
13:24 12.7 °F 5.8 °F 990.1 in WSW 7.4 mph 7.4 mph 63 % 0.0 in
13:44 12.9 °F 5.6 °F 990.1 in WSW 14.8 mph 14.8 mph 61 % 0.0 in
13:49 13.0 °F 5.2 °F 990.1 in WNW 7.4 mph 7.4 mph 59 % 0.0 in
13:54 13.0 °F 4.9 °F 990.1 in WSW 11.1 mph 11.1 mph 58 % 0.0 in
13:59 13.0 °F 4.7 °F 990.1 in WNW 14.8 mph 14.8 mph 57 % 0.0 in
14:04 13.1 °F 4.8 °F 990.1 in WNW 9.3 mph 9.3 mph 57 % 0.0 in
14:09 13.2 °F 4.8 °F 990.1 in WSW 19.5 mph 19.5 mph 57 % 0.0 in
14:19 13.3 °F 4.7 °F 990.1 in WSW 7.4 mph 7.4 mph 56 % 0.0 in
14:29 13.1 °F 4.5 °F 990.7 in West 7.4 mph 7.4 mph 56 % 0.0 in
14:34 13.0 °F 4.4 °F 990.7 in West 6.1 mph 6.1 mph 56 % 0.0 in
14:44 12.8 °F 4.0 °F 990.1 in WSW 9.0 mph 9.0 mph 55 % 0.0 in
14:49 12.7 °F 3.6 °F 990.1 in SW 16.7 mph 16.7 mph 54 % 0.0 in
14:54 12.7 °F 3.6 °F 990.1 in SW 9.3 mph 9.3 mph 54 % 0.0 in
14:59 12.7 °F 3.6 °F 990.7 in WSW 14.8 mph 14.8 mph 54 % 0.0 in
15:04 12.6 °F 3.6 °F 990.7 in SW 11.1 mph 11.1 mph 54 % 0.0 in
15:14 12.6 °F 3.6 °F 990.7 in West 9.3 mph 9.3 mph 54 % 0.0 in
15:19 12.6 °F 3.6 °F 990.7 in NW 13.0 mph 13.0 mph 54 % 0.0 in
15:24 12.6 °F 3.6 °F 990.7 in SW 11.1 mph 11.1 mph 54 % 0.0 in
15:29 12.6 °F 3.6 °F 991.8 in SW 5.6 mph 5.6 mph 54 % 0.0 in
15:34 12.5 °F 3.4 °F 991.8 in WSW 6.4 mph 6.4 mph 54 % 0.0 in
15:39 12.4 °F 3.3 °F 991.8 in West 9.3 mph 9.3 mph 54 % 0.0 in
15:44 12.4 °F 3.3 °F 991.8 in SW 9.3 mph 9.3 mph 54 % 0.0 in
15:54 12.3 °F 3.2 °F 991.8 in West 13.0 mph 13.0 mph 54 % 0.0 in
15:59 12.7 °F 3.6 °F 991.8 in West 7.4 mph 7.4 mph 54 % 0.0 in
16:04 13.0 °F 3.9 °F 991.8 in SW 7.4 mph 7.4 mph 54 % 0.0 in
16:09 13.1 °F 4.0 °F 991.8 in WNW 13.0 mph 13.0 mph 54 % 0.0 in
16:29 12.7 °F 3.3 °F 992.8 in WSW 5.6 mph 5.6 mph 53 % 0.0 in
16:34 12.3 °F 3.0 °F 992.8 in West 11.1 mph 11.1 mph 53 % 0.0 in
16:39 12.1 °F 2.8 °F 992.8 in WSW 11.1 mph 11.1 mph 53 % 0.0 in
16:44 11.9 °F 2.6 °F 992.8 in West 7.4 mph 7.4 mph 53 % 0.0 in
16:49 11.8 °F 2.5 °F 992.8 in West 9.5 mph 9.5 mph 53 % 0.0 in
16:59 11.8 °F 2.5 °F 993.8 in WSW 6.1 mph 6.4 mph 53 % 0.0 in
17:04 11.7 °F 2.4 °F 993.8 in SSW 10.0 mph 10.0 mph 53 % 0.0 in
17:09 11.6 °F 2.3 °F 993.8 in WSW 5.6 mph 5.6 mph 53 % 0.0 in
17:14 11.4 °F 2.2 °F 993.8 in WSW 6.9 mph 6.9 mph 53 % 0.0 in
17:19 11.2 °F 1.9 °F 993.8 in WNW 7.4 mph 7.4 mph 53 % 0.0 in
17:24 11.1 °F 1.9 °F 993.8 in SW 7.4 mph 7.4 mph 53 % 0.0 in
17:29 11.1 °F 1.9 °F 993.8 in WNW 4.2 mph 4.2 mph 53 % 0.0 in
17:39 10.9 °F 1.7 °F 993.8 in West 11.1 mph 11.1 mph 53 % 0.0 in
17:44 10.7 °F 1.5 °F 994.8 in SW 5.6 mph 5.6 mph 53 % 0.0 in
17:49 10.6 °F 1.4 °F 994.8 in West 3.7 mph 3.7 mph 53 % 0.0 in
17:54 10.5 °F 1.3 °F 994.8 in WSW 1.9 mph   53 % 0.0 in
17:59 10.4 °F 1.2 °F 994.8 in West 4.2 mph 5.3 mph 53 % 0.0 in
18:09 10.2 °F 1.1 °F 994.8 in SW 4.7 mph 4.7 mph 53 % 0.0 in
18:19 10.2 °F 1.1 °F 995.8 in West 3.7 mph 3.7 mph 53 % 0.0 in
18:20 7.2 °F -0.5 °F 1001.9 in Calm   4.8 mph 58 % 0.0 in
18:24 10.1 °F 0.9 °F 995.8 in West 3.7 mph 3.7 mph 53 % 0.0 in
18:30 6.7 °F -1.0 °F 1001.9 in SSW 3.2 mph 4.8 mph 58 % 0.0 in
18:34 9.8 °F 0.7 °F 995.8 in WSW 1.9 mph 1.9 mph 53 % 0.0 in
18:39 9.6 °F 0.7 °F 995.8 in Calm     54 % 0.0 in
18:40 6.3 °F -1.4 °F 1001.9 in SW 1.6 mph 4.8 mph 58 % 0.0 in
18:44 9.4 °F 0.6 °F 995.8 in Calm   2.3 mph 54 % 0.0 in
18:49 9.3 °F 0.4 °F 995.8 in Calm     54 % 0.0 in
18:50 6.8 °F -0.7 °F 1001.9 in Calm   4.8 mph 59 % 0.0 in
18:54 9.2 °F 0.4 °F 995.8 in Calm     54 % 0.0 in
18:59 9.2 °F 0.4 °F 995.8 in SSE 2.6 mph 2.6 mph 54 % 0.0 in
19:00 7.0 °F -0.5 °F 1001.9 in West 3.2 mph 3.2 mph 59 % 0.0 in
19:04 9.4 °F 0.6 °F 995.8 in ESE 3.9 mph 4.2 mph 54 % 0.0 in
19:10 7.0 °F -0.5 °F 1002.9 in WSW 3.2 mph 4.8 mph 59 % 0.0 in
19:19 8.9 °F 0.1 °F 996.8 in NW 3.7 mph 3.7 mph 54 % 0.0 in
19:20 7.1 °F -0.4 °F 1002.9 in WSW 4.8 mph 6.4 mph 59 % 0.0 in
19:24 8.7 °F 0.2 °F 996.8 in NE 2.6 mph 2.6 mph 55 % 0.0 in
19:30 7.0 °F -0.5 °F 1002.9 in WSW 3.2 mph 6.4 mph 59 % 0.0 in
19:39 8.4 °F -0.1 °F 996.8 in West 3.7 mph 3.7 mph 55 % 0.0 in
19:40 6.5 °F -0.7 °F 1002.9 in WSW 3.2 mph 4.8 mph 60 % 0.0 in
19:44 8.4 °F -0.1 °F 997.9 in WNW 3.7 mph 3.7 mph 55 % 0.0 in
19:49 8.4 °F -0.1 °F 997.9 in WNW 3.9 mph 3.9 mph 55 % 0.0 in
19:54 8.5 °F -0.1 °F 997.9 in WNW 3.9 mph 3.9 mph 55 % 0.0 in
19:59 8.7 °F 0.2 °F 997.9 in WSW 7.4 mph 7.4 mph 55 % 0.0 in
20:00 7.0 °F -0.2 °F 1003.9 in West 8.0 mph 8.0 mph 60 % 0.0 in
20:09 8.9 °F 0.3 °F 997.9 in West 3.9 mph 4.2 mph 55 % 0.0 in
20:10 6.9 °F -0.3 °F 1003.9 in WSW 3.2 mph 9.7 mph 60 % 0.0 in
20:14 9.0 °F 0.4 °F 997.9 in West 3.9 mph 4.2 mph 55 % 0.0 in
20:19 9.0 °F 0.2 °F 997.9 in NW 3.7 mph   54 % 0.0 in
20:20 6.9 °F -0.3 °F 1003.9 in WSW 4.8 mph 6.4 mph 60 % 0.0 in
20:24 8.9 °F 0.1 °F 997.9 in WNW 2.3 mph   54 % 0.0 in
20:29 8.9 °F 0.1 °F 998.9 in WNW 2.6 mph 2.6 mph 54 % 0.0 in
20:30 8.9 °F 0.1 °F 998.9 in WNW 2.6 mph 2.6 mph 54 % 0.0 in
20:35 8.8 °F 0.0 °F 998.9 in WNW 2.6 mph 2.6 mph 54 % 0.0 in
20:45 8.7 °F -0.1 °F 998.9 in NW 3.9 mph 3.9 mph 54 % 0.0 in
20:50 8.8 °F 0.0 °F 998.9 in West 3.9 mph 3.9 mph 54 % 0.0 in
20:55 8.8 °F 0.0 °F 998.9 in West 3.7 mph   54 % 0.0 in
21:00 8.9 °F 0.1 °F 998.9 in WSW 9.3 mph 9.3 mph 54 % 0.0 in
21:05 9.0 °F 0.2 °F 998.9 in WSW 7.4 mph 7.4 mph 54 % 0.0 in
21:10 6.3 °F -0.7 °F 1006.0 in West 1.6 mph 4.8 mph 61 % 0.0 in
21:15 8.9 °F 0.1 °F 998.9 in WSW 6.4 mph 6.4 mph 54 % 0.0 in
21:20 8.9 °F 0.1 °F 998.9 in WSW 5.6 mph 5.6 mph 54 % 0.0 in
21:30 8.8 °F 0.0 °F 999.9 in WSW 7.4 mph 7.4 mph 54 % 0.0 in
21:35 8.7 °F -0.1 °F 999.9 in WSW 5.6 mph 5.6 mph 54 % 0.0 in
21:40 8.3 °F -0.5 °F 999.9 in WSW 3.7 mph 3.7 mph 54 % 0.0 in
21:50 7.7 °F -0.8 °F 999.9 in West 3.9 mph 3.9 mph 55 % 0.0 in
21:55 7.9 °F -0.6 °F 999.9 in West 3.7 mph 4.2 mph 55 % 0.0 in
22:00 5.6 °F -0.9 °F 1006.0 in Calm   3.2 mph 63 % 0.0 in
22:05 8.0 °F -0.5 °F 998.9 in WNW 3.7 mph 3.7 mph 55 % 0.0 in
22:10 5.5 °F -1.0 °F 1006.0 in NW 1.6 mph 3.2 mph 63 % 0.0 in
22:15 7.9 °F -0.6 °F 999.9 in West 3.7 mph 3.7 mph 55 % 0.0 in
22:20 5.5 °F -1.0 °F 1006.0 in Calm   3.2 mph 63 % 0.0 in
22:25 8.0 °F -0.3 °F 999.9 in West 3.9 mph 3.9 mph 56 % 0.0 in
22:26 8.0 °F -0.3 °F 999.9 in West 4.2 mph 4.2 mph 56 % 0.0 in
22:31 8.1 °F -0.2 °F 999.9 in WSW 5.6 mph 5.6 mph 56 % 0.0 in
22:36 8.0 °F -0.3 °F 999.9 in WSW 5.6 mph 5.6 mph 56 % 0.0 in
22:40 5.4 °F -1.1 °F 1006.0 in West 1.6 mph 4.8 mph 63 % 0.0 in
22:41 7.9 °F -0.3 °F 999.9 in WSW 5.6 mph 5.6 mph 56 % 0.0 in
22:50 5.3 °F -1.2 °F 1006.0 in West 1.6 mph 3.2 mph 63 % 0.0 in
22:51 7.6 °F -0.6 °F 999.9 in WSW 4.7 mph 5.0 mph 56 % 0.0 in
23:00 5.2 °F -1.1 °F 1006.0 in Calm   3.2 mph 64 % 0.0 in
23:01 8.0 °F -0.3 °F 1000.9 in WSW 4.7 mph 5.0 mph 56 % 0.0 in
23:06 8.2 °F -0.1 °F 1000.9 in WSW 4.7 mph 5.0 mph 56 % 0.0 in
23:11 8.2 °F -0.1 °F 1000.9 in WSW 4.7 mph 5.0 mph 56 % 0.0 in
23:16 8.2 °F -0.1 °F 1000.9 in WSW 4.7 mph 5.0 mph 56 % 0.0 in
23:30 5.1 °F -1.4 °F 1007.0 in WSW 4.8 mph 8.0 mph 63 % 0.0 in
23:31 7.0 °F -1.2 °F 1000.9 in NNE 4.2 mph 4.7 mph 56 % 0.0 in
23:36 6.9 °F -1.1 °F 1000.9 in NNE 4.2 mph 4.7 mph 57 % 0.0 in
23:41 6.8 °F -1.4 °F 1000.9 in NNE 4.2 mph 4.7 mph 56 % 0.0 in
23:46 6.9 °F -1.1 °F 1001.9 in West 3.7 mph 3.7 mph 57 % 0.0 in
23:50 4.7 °F -1.6 °F 1007.0 in Calm   3.2 mph 64 % 0.0 in
23:51 7.0 °F -0.9 °F 1001.9 in West 3.7 mph 3.7 mph 57 % 0.0 in
23:56 7.1 °F -0.8 °F 1001.9 in West 5.6 mph 5.6 mph 57 % 0.0 in
Meteo Sesrovires
Elogis d' Weather Underground - 2 mb

Guio original per  Jim McMurry - jmcmurry@mwt.net Adaptat per a la plantilla per  Wim van der Kuil - Leuven-Template.eu

Trobareu la nostra informacio del temps tambe a:

Weather Underground

AWEKAS